Stations météo

Publicité
Kew Gardens, Grande-Bretagne (99095): Température de l'air & dewpoint: 04.08.2020 00:00:00 - 10.08.2020 00:00:00 (BST)Kew Gardens, Grande-Bretagne (99095): Température de l'air -20cm & Température de l'air -100cm: 04.08.2020 00:00:00 - 10.08.2020 00:00:00 (BST)Kew Gardens, Grande-Bretagne (99095): Vitesse du vent: 04.08.2020 00:00:00 - 10.08.2020 00:00:00 (BST)Kew Gardens, Grande-Bretagne (99095): Direction du vent: 04.08.2020 00:00:00 - 10.08.2020 00:00:00 (BST)Kew Gardens, Grande-Bretagne (99095): Quantités de précipitations: 04.08.2020 00:00:00 - 10.08.2020 00:00:00 (BST)
Date & Time tt [°C] td [°C] tt -20cm [°C] tt -100cm [°C] ff [km/h] ff [knt] dd rr [mm]
10.08.2020 00:00:00 25,3 16,4 - - 8 4 ENE 0,0
09.08.2020 23:00:00 26,0 16,2 - - 9 5 NE 0,0
09.08.2020 22:00:00 26,5 16,2 - - 8 4 ENE 0,0
09.08.2020 21:00:00 27,4 16,2 - - 8 4 ENE 0,0
09.08.2020 20:00:00 28,6 16,6 - - 8 4 E 0,0
09.08.2020 19:00:00 29,8 15,5 - - 11 6 ESE 0,0
09.08.2020 18:00:00 31,3 15,1 - - 11 6 E 0,0
09.08.2020 17:00:00 31,4 15,9 - - 13 7 E 0,0
09.08.2020 16:00:00 32,2 15,3 - - 16 9 E 0,0
09.08.2020 15:00:00 31,7 16,2 - - 11 6 E 0,0
09.08.2020 14:00:00 30,1 16,7 - - 9 5 E 0,0
09.08.2020 13:00:00 27,6 16,4 - - 8 4 NE 0,0
09.08.2020 12:00:00 24,7 16,0 - - 9 5 NE 0,0
09.08.2020 11:00:00 23,2 16,1 - - 9 5 NNE 0,0
09.08.2020 10:00:00 21,3 15,5 22,2 20,2 8 4 NE 0,0
09.08.2020 09:00:00 20,0 15,5 - - 8 4 NE 0,0
09.08.2020 08:00:00 18,5 15,2 - - 8 4 NE 0,0
09.08.2020 07:00:00 18,0 15,2 - - 9 5 NNE 0,0
09.08.2020 06:00:00 17,6 15,0 - - 8 4 NE 0,0
09.08.2020 05:00:00 17,5 15,0 - - 8 4 NNE 0,0
09.08.2020 04:00:00 17,7 15,0 - - 8 4 N 0,0
09.08.2020 03:00:00 18,0 15,0 - - 9 5 NNE 0,0
09.08.2020 02:00:00 18,1 15,0 - - 5 3 N 0,0
09.08.2020 01:00:00 18,6 14,9 - - 5 3 N 0,0
09.08.2020 00:00:00 20,4 15,4 - - 9 5 NNE 0,0
08.08.2020 23:00:00 21,9 15,5 - - 8 4 NE 0,0
08.08.2020 22:00:00 23,2 15,7 - - 9 5 NNE 0,0
08.08.2020 21:00:00 25,9 16,0 - - 9 5 NNE 0,0
08.08.2020 20:00:00 27,6 16,4 - - 9 5 NNE 0,0
08.08.2020 19:00:00 28,7 16,7 - - 11 6 NE 0,0
08.08.2020 18:00:00 30,4 16,7 - - 11 6 NNE 0,0
08.08.2020 17:00:00 32,3 15,7 - - 9 5 NE 0,0
08.08.2020 16:00:00 32,1 16,0 - - 9 5 NE 0,0
08.08.2020 15:00:00 30,7 16,0 - - 8 4 E 0,0
08.08.2020 14:00:00 30,2 17,0 - - 8 4 NNE 0,0
08.08.2020 13:00:00 28,1 17,0 - - 8 4 ENE 0,0
08.08.2020 12:00:00 26,0 16,2 - - 9 5 ENE 0,0
08.08.2020 11:00:00 26,3 16,0 - - 5 3 ENE 0,0
08.08.2020 10:00:00 24,7 16,3 22,0 20,0 5 3 N 0,0
08.08.2020 09:00:00 24,3 16,6 - - 8 4 N 0,0
08.08.2020 08:00:00 23,0 16,2 - - 5 3 NNE 0,0
08.08.2020 07:00:00 22,3 16,6 - - 5 3 NNE 0,0
08.08.2020 06:00:00 19,1 15,7 - - 2 1 E 0,0
08.08.2020 05:00:00 18,7 15,5 - - 2 1 S 0,0
08.08.2020 04:00:00 18,2 15,1 - - 0 0 N 0,0
08.08.2020 03:00:00 18,2 14,8 - - 2 1 WNW 0,0
08.08.2020 02:00:00 19,4 14,8 - - 0 0 N 0,0
08.08.2020 01:00:00 19,8 14,0 - - 2 1 W 0,0
08.08.2020 00:00:00 20,4 13,9 - - 0 0 N 0,0
07.08.2020 23:00:00 21,6 14,6 - - 2 1 NW 0,0
07.08.2020 22:00:00 21,8 12,4 - - 0 0 N 0,0
07.08.2020 21:00:00 23,9 11,8 - - 0 0 N 0,0
07.08.2020 20:00:00 27,5 12,8 - - 0 0 N 0,0
07.08.2020 19:00:00 30,4 10,7 - - 4 2 SSE 0,0
07.08.2020 18:00:00 32,0 9,7 - - 8 4 SSE 0,0
07.08.2020 17:00:00 33,7 8,1 - - 9 5 SSW 0,0
07.08.2020 16:00:00 35,4 8,5 - - 9 5 S 0,0
07.08.2020 15:00:00 36,1 9,9 - - 8 4 SSW 0,0
07.08.2020 14:00:00 35,5 11,9 - - 8 4 SE 0,0
07.08.2020 13:00:00 33,0 11,7 - - 4 2 WNW 0,0
07.08.2020 12:00:00 30,4 11,5 - - 5 3 E 0,0
07.08.2020 11:00:00 29,0 12,4 - - 4 2 SE 0,0
07.08.2020 10:00:00 26,1 13,6 21,0 19,7 2 1 NNE 0,0
07.08.2020 09:00:00 24,0 15,5 - - 5 3 E 0,0
07.08.2020 08:00:00 18,2 16,1 - - 2 1 S 0,0
07.08.2020 07:00:00 14,4 14,1 - - 2 1 W 0,0
07.08.2020 06:00:00 13,3 12,8 - - 0 0 N 0,0
07.08.2020 05:00:00 13,7 13,0 - - 0 0 N 0,0
07.08.2020 04:00:00 14,3 13,3 - - 0 0 N 0,0
07.08.2020 03:00:00 15,0 13,3 - - 0 0 N 0,0
07.08.2020 02:00:00 15,6 13,4 - - 2 1 S 0,0
07.08.2020 01:00:00 16,4 13,7 - - 4 2 SSE 0,0
07.08.2020 00:00:00 17,4 13,7 - - 0 0 N 0,0
06.08.2020 23:00:00 18,3 13,4 - - 2 1 SW 0,0
06.08.2020 22:00:00 19,8 13,3 - - 4 2 SSW 0,0
06.08.2020 21:00:00 22,1 12,9 - - 4 2 SW 0,0
06.08.2020 20:00:00 26,3 12,9 - - 5 3 S 0,0
06.08.2020 19:00:00 28,3 13,7 - - 8 4 SW 0,0
06.08.2020 18:00:00 28,8 14,7 - - 8 4 SW 0,0
06.08.2020 17:00:00 29,4 15,5 - - 8 4 S 0,0
06.08.2020 16:00:00 29,6 16,8 - - 9 5 SSW 0,0
06.08.2020 15:00:00 27,9 16,9 - - 5 3 SSW 0,0
06.08.2020 14:00:00 26,3 16,8 - - 5 3 SSE 0,0
06.08.2020 13:00:00 26,0 16,9 - - 8 4 WSW 0,0
06.08.2020 12:00:00 24,5 17,3 - - 9 5 SSW 0,0
06.08.2020 11:00:00 22,4 16,9 - - 9 5 SSW 0,0
06.08.2020 10:00:00 21,0 17,4 21,0 19,7 5 3 SSW 0,0
06.08.2020 09:00:00 20,0 17,5 - - 4 2 SW 0,0
06.08.2020 08:00:00 20,2 17,1 - - 8 4 SSW 0,0
06.08.2020 07:00:00 19,1 17,4 - - 4 2 SSW 0,0
06.08.2020 06:00:00 18,7 16,9 - - 8 4 S 0,0
06.08.2020 05:00:00 18,8 16,6 - - 5 3 SSW 0,0
06.08.2020 04:00:00 18,8 16,4 - - 5 3 SSW 0,0
06.08.2020 03:00:00 18,8 16,2 - - 5 3 SSW 0,0
06.08.2020 02:00:00 18,8 16,0 - - 4 2 SW 0,0
06.08.2020 01:00:00 18,8 15,8 - - 8 4 SW 0,0
06.08.2020 00:00:00 19,3 15,4 - - 13 7 SW 0,0
05.08.2020 23:00:00 19,6 14,4 - - 11 6 SW 0,0
05.08.2020 22:00:00 20,0 13,8 - - 11 6 SW 0,0
05.08.2020 21:00:00 20,3 13,3 - - 8 4 SW 0,0
05.08.2020 20:00:00 21,7 12,7 - - 13 7 WSW 0,0
05.08.2020 19:00:00 22,4 11,8 - - 11 6 SW 0,0
05.08.2020 18:00:00 22,9 10,8 - - 15 8 SSW 0,0
05.08.2020 17:00:00 24,1 9,4 - - 13 7 SSW 0,0
05.08.2020 16:00:00 23,5 9,1 - - 16 9 SSW 0,0
05.08.2020 15:00:00 25,5 7,3 - - 13 7 WSW 0,0
05.08.2020 14:00:00 24,9 6,8 - - 15 8 SW 0,0
05.08.2020 13:00:00 24,5 7,3 - - 16 9 SSW 0,0
05.08.2020 12:00:00 24,2 9,6 - - 16 9 SSW 0,0
05.08.2020 11:00:00 22,9 11,3 - - 11 6 SW 0,0
05.08.2020 10:00:00 20,7 12,9 20,0 19,7 13 7 SSW 0,0
05.08.2020 09:00:00 18,2 12,5 - - 8 4 SW 0,0
05.08.2020 08:00:00 17,3 13,4 - - 5 3 SW 0,0
05.08.2020 07:00:00 16,6 13,2 - - 9 5 S 0,0
05.08.2020 06:00:00 16,2 13,1 - - 9 5 SSW 0,0
05.08.2020 05:00:00 15,8 12,9 - - 9 5 S 0,0
05.08.2020 04:00:00 15,4 12,8 - - 9 5 SSW 0,0
05.08.2020 03:00:00 15,2 12,1 - - 8 4 SSW 0,0
05.08.2020 02:00:00 16,1 12,0 - - 8 4 SSW 0,0
05.08.2020 01:00:00 15,9 11,7 - - 5 3 SSW 0,0
05.08.2020 00:00:00 15,9 11,3 - - 8 4 SSW 0,0
04.08.2020 23:00:00 16,5 11,3 - - 11 6 SW 0,0
04.08.2020 22:00:00 17,0 11,3 - - 11 6 SSW 0,0
04.08.2020 21:00:00 17,9 11,5 - - 11 6 SSW 0,0
04.08.2020 20:00:00 19,4 11,0 - - 11 6 SW 0,0
04.08.2020 19:00:00 21,0 9,9 - - 13 7 SW 0,0
04.08.2020 18:00:00 21,7 8,7 - - 11 6 SW 0,0
04.08.2020 17:00:00 21,5 8,6 - - 13 7 SSW 0,0
04.08.2020 16:00:00 22,2 6,0 - - 13 7 SW 0,0
04.08.2020 15:00:00 23,6 7,2 - - 11 6 WSW 0,0
04.08.2020 14:00:00 21,3 5,8 - - 9 5 SW 0,0
04.08.2020 13:00:00 21,3 5,9 - - 11 6 SSW 0,0
04.08.2020 12:00:00 21,5 7,3 - - 11 6 SW 0,0
04.08.2020 11:00:00 21,3 8,8 - - 11 6 SW 0,0
04.08.2020 10:00:00 18,1 11,8 20,2 19,7 8 4 SW 0,0
04.08.2020 09:00:00 16,9 11,5 - - 11 6 SSW 0,0
04.08.2020 08:00:00 13,7 11,2 - - 2 1 S 0,0
04.08.2020 07:00:00 11,0 10,9 - - 2 1 SSE 0,0
04.08.2020 06:00:00 9,7 9,3 - - 4 2 SSW 0,0
04.08.2020 05:00:00 10,3 9,9 - - 2 1 SSW 0,0
04.08.2020 04:00:00 10,9 10,4 - - 2 1 SSW 0,0
04.08.2020 03:00:00 11,4 10,7 - - 0 0 N 0,0
04.08.2020 02:00:00 12,2 11,0 - - 2 1 ESE 0,0
04.08.2020 01:00:00 13,7 11,4 - - 2 1 ESE 0,0
04.08.2020 00:00:00 15,5 11,6 - - 2 1 ESE 0,0

tt = Température de l'air
td = dewpoint
tt -20cm = Température de l'air -20cm
tt -100cm = Température de l'air -100cm
ff = Vitesse du vent
dd = Direction du vent
rr = Quantités de précipitations

stations d'obs. à proximité